sensor_id;sensor_type;location;lat;lon;timestamp;temperature;humidity
20803;DHT22;10562;-33.856;151.182;2022-12-05T00:00:20;28.00;99.90
20803;DHT22;10562;-33.856;151.182;2022-12-05T00:02:51;28.30;99.90
20803;DHT22;10562;-33.856;151.182;2022-12-05T00:05:23;28.30;99.90
20803;DHT22;10562;-33.856;151.182;2022-12-05T00:07:54;28.20;99.90
20803;DHT22;10562;-33.856;151.182;2022-12-05T00:10:25;28.40;99.90
20803;DHT22;10562;-33.856;151.182;2022-12-05T00:12:56;28.10;99.90
20803;DHT22;10562;-33.856;151.182;2022-12-05T00:15:27;28.10;99.90
20803;DHT22;10562;-33.856;151.182;2022-12-05T00:17:58;28.20;99.90
20803;DHT22;10562;-33.856;151.182;2022-12-05T00:20:31;28.20;99.90
20803;DHT22;10562;-33.856;151.182;2022-12-05T00:23:02;28.20;99.90
20803;DHT22;10562;-33.856;151.182;2022-12-05T00:25:36;28.10;99.90
20803;DHT22;10562;-33.856;151.182;2022-12-05T00:28:07;28.20;99.90
20803;DHT22;10562;-33.856;151.182;2022-12-05T00:30:40;28.40;99.90
20803;DHT22;10562;-33.856;151.182;2022-12-05T00:33:11;28.30;99.90
20803;DHT22;10562;-33.856;151.182;2022-12-05T00:35:44;28.20;99.90
20803;DHT22;10562;-33.856;151.182;2022-12-05T00:38:15;28.50;99.90
20803;DHT22;10562;-33.856;151.182;2022-12-05T00:40:46;28.60;99.90
20803;DHT22;10562;-33.856;151.182;2022-12-05T00:43:17;28.80;99.90
20803;DHT22;10562;-33.856;151.182;2022-12-05T00:45:48;28.80;99.90
20803;DHT22;10562;-33.856;151.182;2022-12-05T00:48:20;29.00;99.90
20803;DHT22;10562;-33.856;151.182;2022-12-05T00:51:00;29.00;99.90
20803;DHT22;10562;-33.856;151.182;2022-12-05T00:53:31;28.70;99.90
20803;DHT22;10562;-33.856;151.182;2022-12-05T00:56:03;28.20;99.90
20803;DHT22;10562;-33.856;151.182;2022-12-05T00:58:34;28.30;99.90
20803;DHT22;10562;-33.856;151.182;2022-12-05T01:01:09;28.50;99.90
20803;DHT22;10562;-33.856;151.182;2022-12-05T01:03:41;28.90;99.90
20803;DHT22;10562;-33.856;151.182;2022-12-05T01:06:14;28.80;99.90
20803;DHT22;10562;-33.856;151.182;2022-12-05T01:08:45;28.90;99.90
20803;DHT22;10562;-33.856;151.182;2022-12-05T01:11:18;28.80;99.90
20803;DHT22;10562;-33.856;151.182;2022-12-05T01:13:50;29.10;99.90
20803;DHT22;10562;-33.856;151.182;2022-12-05T01:16:22;29.10;99.90
20803;DHT22;10562;-33.856;151.182;2022-12-05T01:18:57;29.30;99.90
20803;DHT22;10562;-33.856;151.182;2022-12-05T01:21:30;29.60;99.90
20803;DHT22;10562;-33.856;151.182;2022-12-05T01:24:01;29.60;99.90
20803;DHT22;10562;-33.856;151.182;2022-12-05T01:26:32;29.70;99.90
20803;DHT22;10562;-33.856;151.182;2022-12-05T01:29:03;29.40;99.90
20803;DHT22;10562;-33.856;151.182;2022-12-05T01:31:36;29.60;99.90
20803;DHT22;10562;-33.856;151.182;2022-12-05T01:34:08;29.70;99.90
20803;DHT22;10562;-33.856;151.182;2022-12-05T01:36:42;29.50;99.90
20803;DHT22;10562;-33.856;151.182;2022-12-05T01:39:13;29.70;99.90
20803;DHT22;10562;-33.856;151.182;2022-12-05T01:41:46;29.40;99.90
20803;DHT22;10562;-33.856;151.182;2022-12-05T01:47:24;29.20;99.90
20803;DHT22;10562;-33.856;151.182;2022-12-05T01:49:58;29.60;99.90
20803;DHT22;10562;-33.856;151.182;2022-12-05T01:52:31;29.80;99.90
20803;DHT22;10562;-33.856;151.182;2022-12-05T01:55:08;30.00;99.90
20803;DHT22;10562;-33.856;151.182;2022-12-05T01:57:39;30.00;99.90
20803;DHT22;10562;-33.856;151.182;2022-12-05T02:00:12;29.90;99.90
20803;DHT22;10562;-33.856;151.182;2022-12-05T02:02:47;30.00;99.90
20803;DHT22;10562;-33.856;151.182;2022-12-05T02:05:20;29.90;99.90
20803;DHT22;10562;-33.856;151.182;2022-12-05T02:07:54;29.70;99.90
20803;DHT22;10562;-33.856;151.182;2022-12-05T02:10:26;29.90;99.90
20803;DHT22;10562;-33.856;151.182;2022-12-05T02:13:01;29.80;99.90
20803;DHT22;10562;-33.856;151.182;2022-12-05T02:15:41;30.10;99.90
20803;DHT22;10562;-33.856;151.182;2022-12-05T02:18:22;30.00;99.90
20803;DHT22;10562;-33.856;151.182;2022-12-05T02:21:06;30.20;99.90
20803;DHT22;10562;-33.856;151.182;2022-12-05T02:23:58;30.30;99.90
20803;DHT22;10562;-33.856;151.182;2022-12-05T02:29:56;30.60;99.90
20803;DHT22;10562;-33.856;151.182;2022-12-05T02:32:44;30.70;99.90
20803;DHT22;10562;-33.856;151.182;2022-12-05T02:35:25;30.90;99.90
20803;DHT22;10562;-33.856;151.182;2022-12-05T02:38:05;30.80;99.90
20803;DHT22;10562;-33.856;151.182;2022-12-05T02:40:45;30.70;99.90
20803;DHT22;10562;-33.856;151.182;2022-12-05T02:43:21;31.00;99.90
20803;DHT22;10562;-33.856;151.182;2022-12-05T02:45:58;30.90;99.90
20803;DHT22;10562;-33.856;151.182;2022-12-05T02:48:30;31.10;99.90
20803;DHT22;10562;-33.856;151.182;2022-12-05T02:51:04;31.10;99.90
20803;DHT22;10562;-33.856;151.182;2022-12-05T02:53:38;30.90;99.90
20803;DHT22;10562;-33.856;151.182;2022-12-05T02:56:10;31.10;99.90
20803;DHT22;10562;-33.856;151.182;2022-12-05T02:58:44;31.30;99.90
20803;DHT22;10562;-33.856;151.182;2022-12-05T03:01:22;31.30;99.90
20803;DHT22;10562;-33.856;151.182;2022-12-05T03:03:54;31.10;99.90
20803;DHT22;10562;-33.856;151.182;2022-12-05T03:06:27;31.40;99.90
20803;DHT22;10562;-33.856;151.182;2022-12-05T03:09:02;31.30;99.90
20803;DHT22;10562;-33.856;151.182;2022-12-05T03:11:39;31.60;99.90
20803;DHT22;10562;-33.856;151.182;2022-12-05T03:14:14;31.80;99.90
20803;DHT22;10562;-33.856;151.182;2022-12-05T03:16:51;31.80;99.90
20803;DHT22;10562;-33.856;151.182;2022-12-05T03:19:25;32.00;99.90
20803;DHT22;10562;-33.856;151.182;2022-12-05T03:21:59;31.90;99.90
20803;DHT22;10562;-33.856;151.182;2022-12-05T03:24:31;32.20;99.90
20803;DHT22;10562;-33.856;151.182;2022-12-05T03:27:10;32.10;99.90
20803;DHT22;10562;-33.856;151.182;2022-12-05T03:29:49;32.10;99.90
20803;DHT22;10562;-33.856;151.182;2022-12-05T03:32:26;32.20;99.90
20803;DHT22;10562;-33.856;151.182;2022-12-05T03:35:05;32.10;99.90
20803;DHT22;10562;-33.856;151.182;2022-12-05T03:37:45;31.60;99.90
20803;DHT22;10562;-33.856;151.182;2022-12-05T03:40:28;31.60;99.90
20803;DHT22;10562;-33.856;151.182;2022-12-05T03:43:05;31.90;99.90
20803;DHT22;10562;-33.856;151.182;2022-12-05T03:45:43;32.00;99.90
20803;DHT22;10562;-33.856;151.182;2022-12-05T03:48:25;32.10;99.90
20803;DHT22;10562;-33.856;151.182;2022-12-05T03:50:58;32.30;99.90
20803;DHT22;10562;-33.856;151.182;2022-12-05T03:53:33;32.30;99.90
20803;DHT22;10562;-33.856;151.182;2022-12-05T03:56:07;32.80;99.90
20803;DHT22;10562;-33.856;151.182;2022-12-05T03:58:42;32.80;99.90
20803;DHT22;10562;-33.856;151.182;2022-12-05T04:01:16;32.60;99.90
20803;DHT22;10562;-33.856;151.182;2022-12-05T04:03:52;32.80;99.90
20803;DHT22;10562;-33.856;151.182;2022-12-05T04:06:28;32.60;99.90
20803;DHT22;10562;-33.856;151.182;2022-12-05T04:09:02;32.80;99.90
20803;DHT22;10562;-33.856;151.182;2022-12-05T04:11:38;32.70;99.90
20803;DHT22;10562;-33.856;151.182;2022-12-05T04:14:12;32.70;99.90
20803;DHT22;10562;-33.856;151.182;2022-12-05T04:16:48;32.80;99.90
20803;DHT22;10562;-33.856;151.182;2022-12-05T04:19:37;33.40;99.90
20803;DHT22;10562;-33.856;151.182;2022-12-05T04:22:25;32.70;99.90
20803;DHT22;10562;-33.856;151.182;2022-12-05T04:24:58;32.70;99.90
20803;DHT22;10562;-33.856;151.182;2022-12-05T04:27:52;32.70;99.90
20803;DHT22;10562;-33.856;151.182;2022-12-05T04:30:31;32.90;99.90
20803;DHT22;10562;-33.856;151.182;2022-12-05T04:33:07;32.70;99.90
20803;DHT22;10562;-33.856;151.182;2022-12-05T04:35:44;32.60;99.90
20803;DHT22;10562;-33.856;151.182;2022-12-05T04:38:19;32.70;99.90
20803;DHT22;10562;-33.856;151.182;2022-12-05T04:40:54;32.70;99.90
20803;DHT22;10562;-33.856;151.182;2022-12-05T04:43:28;33.10;99.90
20803;DHT22;10562;-33.856;151.182;2022-12-05T04:46:00;32.40;99.90
20803;DHT22;10562;-33.856;151.182;2022-12-05T04:48:36;32.30;99.90
20803;DHT22;10562;-33.856;151.182;2022-12-05T04:51:14;32.50;99.90
20803;DHT22;10562;-33.856;151.182;2022-12-05T04:53:47;32.10;99.90
20803;DHT22;10562;-33.856;151.182;2022-12-05T04:56:19;31.30;99.90
20803;DHT22;10562;-33.856;151.182;2022-12-05T04:58:52;30.40;99.90
20803;DHT22;10562;-33.856;151.182;2022-12-05T05:01:29;29.60;99.90
20803;DHT22;10562;-33.856;151.182;2022-12-05T05:04:06;29.00;99.90
20803;DHT22;10562;-33.856;151.182;2022-12-05T05:06:41;28.90;99.90
20803;DHT22;10562;-33.856;151.182;2022-12-05T05:09:12;28.40;99.90
20803;DHT22;10562;-33.856;151.182;2022-12-05T05:11:44;28.20;99.90
20803;DHT22;10562;-33.856;151.182;2022-12-05T05:14:19;28.00;99.90
20803;DHT22;10562;-33.856;151.182;2022-12-05T05:16:57;27.80;99.90
20803;DHT22;10562;-33.856;151.182;2022-12-05T05:19:28;27.40;99.90
20803;DHT22;10562;-33.856;151.182;2022-12-05T05:22:01;27.10;99.90
20803;DHT22;10562;-33.856;151.182;2022-12-05T05:24:32;27.00;99.90
20803;DHT22;10562;-33.856;151.182;2022-12-05T05:27:03;26.70;99.90
20803;DHT22;10562;-33.856;151.182;2022-12-05T05:29:34;26.50;99.90
20803;DHT22;10562;-33.856;151.182;2022-12-05T05:32:05;26.30;99.90
20803;DHT22;10562;-33.856;151.182;2022-12-05T05:34:37;25.70;99.90
20803;DHT22;10562;-33.856;151.182;2022-12-05T05:37:10;25.30;99.90
20803;DHT22;10562;-33.856;151.182;2022-12-05T05:39:40;24.90;99.90
20803;DHT22;10562;-33.856;151.182;2022-12-05T05:42:11;24.50;99.90
20803;DHT22;10562;-33.856;151.182;2022-12-05T05:44:43;24.30;99.90
20803;DHT22;10562;-33.856;151.182;2022-12-05T05:47:13;24.20;99.90
20803;DHT22;10562;-33.856;151.182;2022-12-05T05:49:45;24.40;99.90
20803;DHT22;10562;-33.856;151.182;2022-12-05T05:52:18;24.60;99.90
20803;DHT22;10562;-33.856;151.182;2022-12-05T05:54:51;25.10;99.90
20803;DHT22;10562;-33.856;151.182;2022-12-05T05:57:22;25.50;99.90
20803;DHT22;10562;-33.856;151.182;2022-12-05T05:59:53;26.00;99.90
20803;DHT22;10562;-33.856;151.182;2022-12-05T06:02:24;26.40;99.90
20803;DHT22;10562;-33.856;151.182;2022-12-05T06:04:55;26.80;99.90
20803;DHT22;10562;-33.856;151.182;2022-12-05T06:07:28;27.10;99.90
20803;DHT22;10562;-33.856;151.182;2022-12-05T06:09:59;27.10;99.90
20803;DHT22;10562;-33.856;151.182;2022-12-05T06:12:30;26.90;99.90
20803;DHT22;10562;-33.856;151.182;2022-12-05T06:15:01;26.50;99.90
20803;DHT22;10562;-33.856;151.182;2022-12-05T06:17:31;26.40;99.90
20803;DHT22;10562;-33.856;151.182;2022-12-05T06:20:02;26.20;99.90
20803;DHT22;10562;-33.856;151.182;2022-12-05T06:22:35;26.00;99.90
20803;DHT22;10562;-33.856;151.182;2022-12-05T06:25:07;25.80;99.90
20803;DHT22;10562;-33.856;151.182;2022-12-05T06:27:40;25.70;99.90
20803;DHT22;10562;-33.856;151.182;2022-12-05T06:30:11;25.70;99.90
20803;DHT22;10562;-33.856;151.182;2022-12-05T06:32:43;25.70;99.90
20803;DHT22;10562;-33.856;151.182;2022-12-05T06:35:14;25.90;99.90
20803;DHT22;10562;-33.856;151.182;2022-12-05T06:37:46;26.00;99.90
20803;DHT22;10562;-33.856;151.182;2022-12-05T06:40:17;26.10;99.90
20803;DHT22;10562;-33.856;151.182;2022-12-05T06:42:48;26.10;99.90
20803;DHT22;10562;-33.856;151.182;2022-12-05T06:45:20;26.10;99.90
20803;DHT22;10562;-33.856;151.182;2022-12-05T06:47:51;26.00;99.90
20803;DHT22;10562;-33.856;151.182;2022-12-05T06:50:22;25.90;99.90
20803;DHT22;10562;-33.856;151.182;2022-12-05T06:52:55;25.80;99.90
20803;DHT22;10562;-33.856;151.182;2022-12-05T06:55:26;25.70;99.90
20803;DHT22;10562;-33.856;151.182;2022-12-05T06:57:57;25.60;99.90
20803;DHT22;10562;-33.856;151.182;2022-12-05T07:00:28;25.50;99.90
20803;DHT22;10562;-33.856;151.182;2022-12-05T07:03:14;25.40;99.90
20803;DHT22;10562;-33.856;151.182;2022-12-05T07:05:45;25.30;99.90
20803;DHT22;10562;-33.856;151.182;2022-12-05T07:08:18;25.20;99.90
20803;DHT22;10562;-33.856;151.182;2022-12-05T07:10:52;25.20;99.90
20803;DHT22;10562;-33.856;151.182;2022-12-05T07:13:23;25.20;99.90
20803;DHT22;10562;-33.856;151.182;2022-12-05T07:15:54;25.10;99.90
20803;DHT22;10562;-33.856;151.182;2022-12-05T07:18:26;25.10;99.90
20803;DHT22;10562;-33.856;151.182;2022-12-05T07:20:57;25.10;99.90
20803;DHT22;10562;-33.856;151.182;2022-12-05T07:23:31;25.10;99.90
20803;DHT22;10562;-33.856;151.182;2022-12-05T07:26:05;25.10;99.90
20803;DHT22;10562;-33.856;151.182;2022-12-05T07:28:36;25.20;99.90
20803;DHT22;10562;-33.856;151.182;2022-12-05T07:31:09;25.10;99.90
20803;DHT22;10562;-33.856;151.182;2022-12-05T07:33:40;25.20;99.90
20803;DHT22;10562;-33.856;151.182;2022-12-05T07:36:12;25.10;99.90
20803;DHT22;10562;-33.856;151.182;2022-12-05T07:38:46;25.10;99.90
20803;DHT22;10562;-33.856;151.182;2022-12-05T07:41:20;25.10;99.90
20803;DHT22;10562;-33.856;151.182;2022-12-05T07:43:51;25.10;99.90
20803;DHT22;10562;-33.856;151.182;2022-12-05T07:46:23;25.10;99.90
20803;DHT22;10562;-33.856;151.182;2022-12-05T07:48:54;25.10;99.90
20803;DHT22;10562;-33.856;151.182;2022-12-05T07:51:25;25.10;99.90
20803;DHT22;10562;-33.856;151.182;2022-12-05T07:53:58;25.10;99.90
20803;DHT22;10562;-33.856;151.182;2022-12-05T07:56:30;25.10;99.90
20803;DHT22;10562;-33.856;151.182;2022-12-05T07:59:01;25.00;99.90
20803;DHT22;10562;-33.856;151.182;2022-12-05T08:01:32;24.90;99.90
20803;DHT22;10562;-33.856;151.182;2022-12-05T08:04:03;24.90;99.90
20803;DHT22;10562;-33.856;151.182;2022-12-05T08:06:34;24.80;99.90
20803;DHT22;10562;-33.856;151.182;2022-12-05T08:09:07;24.70;99.90
20803;DHT22;10562;-33.856;151.182;2022-12-05T08:11:39;24.60;99.90
20803;DHT22;10562;-33.856;151.182;2022-12-05T08:14:10;24.60;99.90
20803;DHT22;10562;-33.856;151.182;2022-12-05T08:16:41;24.70;99.90
20803;DHT22;10562;-33.856;151.182;2022-12-05T08:19:12;24.80;99.90
20803;DHT22;10562;-33.856;151.182;2022-12-05T08:21:44;24.80;99.90
20803;DHT22;10562;-33.856;151.182;2022-12-05T08:24:17;24.80;99.90
20803;DHT22;10562;-33.856;151.182;2022-12-05T08:26:48;24.80;99.90
20803;DHT22;10562;-33.856;151.182;2022-12-05T08:29:21;24.70;99.90
20803;DHT22;10562;-33.856;151.182;2022-12-05T08:31:52;24.70;99.90
20803;DHT22;10562;-33.856;151.182;2022-12-05T08:34:23;24.70;99.90
20803;DHT22;10562;-33.856;151.182;2022-12-05T08:36:54;24.70;99.90
20803;DHT22;10562;-33.856;151.182;2022-12-05T08:39:26;24.60;99.90
20803;DHT22;10562;-33.856;151.182;2022-12-05T08:41:58;24.50;99.90
20803;DHT22;10562;-33.856;151.182;2022-12-05T08:44:28;24.40;99.90
20803;DHT22;10562;-33.856;151.182;2022-12-05T08:46:59;24.30;99.90
20803;DHT22;10562;-33.856;151.182;2022-12-05T08:49:30;24.20;99.90
20803;DHT22;10562;-33.856;151.182;2022-12-05T08:52:02;24.10;99.90
20803;DHT22;10562;-33.856;151.182;2022-12-05T08:54:35;24.10;99.90
20803;DHT22;10562;-33.856;151.182;2022-12-05T08:57:06;24.10;99.90
20803;DHT22;10562;-33.856;151.182;2022-12-05T08:59:36;24.00;99.90
20803;DHT22;10562;-33.856;151.182;2022-12-05T09:02:09;23.80;99.90
20803;DHT22;10562;-33.856;151.182;2022-12-05T09:04:39;23.80;99.90
20803;DHT22;10562;-33.856;151.182;2022-12-05T09:07:10;23.70;99.90
20803;DHT22;10562;-33.856;151.182;2022-12-05T09:09:43;23.60;99.90
20803;DHT22;10562;-33.856;151.182;2022-12-05T09:12:14;23.60;99.90
20803;DHT22;10562;-33.856;151.182;2022-12-05T09:14:45;23.50;99.90
20803;DHT22;10562;-33.856;151.182;2022-12-05T09:17:15;23.50;99.90
20803;DHT22;10562;-33.856;151.182;2022-12-05T09:19:49;23.50;99.90
20803;DHT22;10562;-33.856;151.182;2022-12-05T09:22:21;23.50;99.90
20803;DHT22;10562;-33.856;151.182;2022-12-05T09:24:53;23.40;99.90
20803;DHT22;10562;-33.856;151.182;2022-12-05T09:27:24;23.30;99.90
20803;DHT22;10562;-33.856;151.182;2022-12-05T09:29:55;23.20;99.90
20803;DHT22;10562;-33.856;151.182;2022-12-05T09:32:26;23.20;99.90
20803;DHT22;10562;-33.856;151.182;2022-12-05T09:34:57;23.20;99.90
20803;DHT22;10562;-33.856;151.182;2022-12-05T09:37:28;23.10;99.90
20803;DHT22;10562;-33.856;151.182;2022-12-05T09:40:01;23.10;99.90
20803;DHT22;10562;-33.856;151.182;2022-12-05T09:42:39;23.00;99.90
20803;DHT22;10562;-33.856;151.182;2022-12-05T09:45:20;23.10;99.90
20803;DHT22;10562;-33.856;151.182;2022-12-05T09:47:58;23.10;99.90
20803;DHT22;10562;-33.856;151.182;2022-12-05T09:50:32;23.20;99.90
20803;DHT22;10562;-33.856;151.182;2022-12-05T09:53:14;23.30;99.90
20803;DHT22;10562;-33.856;151.182;2022-12-05T09:55:52;23.10;99.90
20803;DHT22;10562;-33.856;151.182;2022-12-05T09:58:32;22.70;99.90
20803;DHT22;10562;-33.856;151.182;2022-12-05T10:01:19;22.20;99.90
20803;DHT22;10562;-33.856;151.182;2022-12-05T10:06:51;21.50;99.90
20803;DHT22;10562;-33.856;151.182;2022-12-05T10:09:40;21.40;99.90
20803;DHT22;10562;-33.856;151.182;2022-12-05T10:12:23;21.30;99.90
20803;DHT22;10562;-33.856;151.182;2022-12-05T10:15:00;21.10;99.90
20803;DHT22;10562;-33.856;151.182;2022-12-05T10:17:34;21.00;99.90
20803;DHT22;10562;-33.856;151.182;2022-12-05T10:20:11;20.90;99.90
20803;DHT22;10562;-33.856;151.182;2022-12-05T10:22:46;20.80;99.90
20803;DHT22;10562;-33.856;151.182;2022-12-05T10:25:20;20.80;99.90
20803;DHT22;10562;-33.856;151.182;2022-12-05T10:27:55;20.90;99.90
20803;DHT22;10562;-33.856;151.182;2022-12-05T10:30:28;20.90;99.90
20803;DHT22;10562;-33.856;151.182;2022-12-05T10:33:01;21.00;99.90
20803;DHT22;10562;-33.856;151.182;2022-12-05T10:35:34;21.10;99.90
20803;DHT22;10562;-33.856;151.182;2022-12-05T10:38:10;21.10;99.90
20803;DHT22;10562;-33.856;151.182;2022-12-05T10:40:43;21.10;99.90
20803;DHT22;10562;-33.856;151.182;2022-12-05T10:43:23;21.00;99.90
20803;DHT22;10562;-33.856;151.182;2022-12-05T10:45:55;21.00;99.90
20803;DHT22;10562;-33.856;151.182;2022-12-05T10:48:27;21.10;99.90
20803;DHT22;10562;-33.856;151.182;2022-12-05T10:50:59;21.10;99.90
20803;DHT22;10562;-33.856;151.182;2022-12-05T10:53:37;21.10;99.90
20803;DHT22;10562;-33.856;151.182;2022-12-05T10:56:38;21.20;99.90
20803;DHT22;10562;-33.856;151.182;2022-12-05T10:59:12;21.10;99.90
20803;DHT22;10562;-33.856;151.182;2022-12-05T11:01:48;21.10;99.90
20803;DHT22;10562;-33.856;151.182;2022-12-05T11:04:25;21.10;99.90
20803;DHT22;10562;-33.856;151.182;2022-12-05T11:07:00;21.10;99.90
20803;DHT22;10562;-33.856;151.182;2022-12-05T11:09:32;21.00;99.90
20803;DHT22;10562;-33.856;151.182;2022-12-05T11:12:15;21.00;99.90
20803;DHT22;10562;-33.856;151.182;2022-12-05T11:15:06;20.90;99.90
20803;DHT22;10562;-33.856;151.182;2022-12-05T11:17:48;20.80;99.90
20803;DHT22;10562;-33.856;151.182;2022-12-05T11:20:37;20.70;99.90
20803;DHT22;10562;-33.856;151.182;2022-12-05T11:23:22;20.70;99.90
20803;DHT22;10562;-33.856;151.182;2022-12-05T11:25:55;20.60;99.90
20803;DHT22;10562;-33.856;151.182;2022-12-05T11:28:31;20.50;99.90
20803;DHT22;10562;-33.856;151.182;2022-12-05T11:31:24;20.50;99.90
20803;DHT22;10562;-33.856;151.182;2022-12-05T11:34:08;20.40;99.90
20803;DHT22;10562;-33.856;151.182;2022-12-05T11:36:43;20.40;99.90
20803;DHT22;10562;-33.856;151.182;2022-12-05T11:39:16;20.40;99.90
20803;DHT22;10562;-33.856;151.182;2022-12-05T11:42:11;20.30;99.90
20803;DHT22;10562;-33.856;151.182;2022-12-05T11:45:14;20.30;99.90
20803;DHT22;10562;-33.856;151.182;2022-12-05T11:48:04;20.20;99.90
20803;DHT22;10562;-33.856;151.182;2022-12-05T11:50:44;20.10;99.90
20803;DHT22;10562;-33.856;151.182;2022-12-05T11:53:39;20.00;99.90
20803;DHT22;10562;-33.856;151.182;2022-12-05T11:56:20;19.90;99.90
20803;DHT22;10562;-33.856;151.182;2022-12-05T11:59:02;19.80;99.90
20803;DHT22;10562;-33.856;151.182;2022-12-05T12:01:45;19.80;99.90
20803;DHT22;10562;-33.856;151.182;2022-12-05T12:07:36;19.80;99.90
20803;DHT22;10562;-33.856;151.182;2022-12-05T12:10:17;19.90;99.90
20803;DHT22;10562;-33.856;151.182;2022-12-05T12:12:57;19.80;99.90
20803;DHT22;10562;-33.856;151.182;2022-12-05T12:15:55;19.80;99.90
20803;DHT22;10562;-33.856;151.182;2022-12-05T12:21:41;19.70;99.90
20803;DHT22;10562;-33.856;151.182;2022-12-05T12:24:23;19.70;99.90
20803;DHT22;10562;-33.856;151.182;2022-12-05T12:27:03;19.70;99.90
20803;DHT22;10562;-33.856;151.182;2022-12-05T12:29:49;19.80;99.90
20803;DHT22;10562;-33.856;151.182;2022-12-05T12:32:29;19.80;99.90
20803;DHT22;10562;-33.856;151.182;2022-12-05T12:35:31;19.60;99.90
20803;DHT22;10562;-33.856;151.182;2022-12-05T12:38:21;19.70;99.90
20803;DHT22;10562;-33.856;151.182;2022-12-05T12:41:03;19.70;99.90
20803;DHT22;10562;-33.856;151.182;2022-12-05T12:43:47;19.60;99.90
20803;DHT22;10562;-33.856;151.182;2022-12-05T12:46:32;19.70;99.90
20803;DHT22;10562;-33.856;151.182;2022-12-05T12:49:23;19.60;99.90
20803;DHT22;10562;-33.856;151.182;2022-12-05T12:52:00;19.50;99.90
20803;DHT22;10562;-33.856;151.182;2022-12-05T12:54:54;19.50;99.90
20803;DHT22;10562;-33.856;151.182;2022-12-05T12:57:33;19.60;99.90
20803;DHT22;10562;-33.856;151.182;2022-12-05T13:00:21;19.60;99.90
20803;DHT22;10562;-33.856;151.182;2022-12-05T13:02:56;19.60;99.90
20803;DHT22;10562;-33.856;151.182;2022-12-05T13:05:33;19.70;99.90
20803;DHT22;10562;-33.856;151.182;2022-12-05T13:08:10;19.60;99.90
20803;DHT22;10562;-33.856;151.182;2022-12-05T13:10:43;19.60;99.90
20803;DHT22;10562;-33.856;151.182;2022-12-05T13:13:19;19.60;99.90
20803;DHT22;10562;-33.856;151.182;2022-12-05T13:15:51;19.60;99.90
20803;DHT22;10562;-33.856;151.182;2022-12-05T13:18:23;19.60;99.90
20803;DHT22;10562;-33.856;151.182;2022-12-05T13:20:55;19.70;99.90
20803;DHT22;10562;-33.856;151.182;2022-12-05T13:23:28;19.70;99.90
20803;DHT22;10562;-33.856;151.182;2022-12-05T13:26:06;19.70;99.90
20803;DHT22;10562;-33.856;151.182;2022-12-05T13:28:45;19.60;99.90
20803;DHT22;10562;-33.856;151.182;2022-12-05T13:31:17;19.60;99.90
20803;DHT22;10562;-33.856;151.182;2022-12-05T13:33:50;19.60;99.90
20803;DHT22;10562;-33.856;151.182;2022-12-05T13:36:21;19.60;99.90
20803;DHT22;10562;-33.856;151.182;2022-12-05T13:39:22;19.70;99.90
20803;DHT22;10562;-33.856;151.182;2022-12-05T13:42:20;19.70;99.90
20803;DHT22;10562;-33.856;151.182;2022-12-05T13:44:55;19.70;99.90
20803;DHT22;10562;-33.856;151.182;2022-12-05T13:47:31;19.70;99.90
20803;DHT22;10562;-33.856;151.182;2022-12-05T13:50:08;19.70;99.90
20803;DHT22;10562;-33.856;151.182;2022-12-05T13:52:44;19.80;99.90
20803;DHT22;10562;-33.856;151.182;2022-12-05T13:55:23;19.70;99.90
20803;DHT22;10562;-33.856;151.182;2022-12-05T13:57:57;19.80;99.90
20803;DHT22;10562;-33.856;151.182;2022-12-05T14:00:33;19.70;99.90
20803;DHT22;10562;-33.856;151.182;2022-12-05T14:03:14;19.70;99.90
20803;DHT22;10562;-33.856;151.182;2022-12-05T14:05:53;19.60;99.90
20803;DHT22;10562;-33.856;151.182;2022-12-05T14:11:27;19.50;99.90
20803;DHT22;10562;-33.856;151.182;2022-12-05T14:13:58;19.50;99.90
20803;DHT22;10562;-33.856;151.182;2022-12-05T14:16:48;19.50;99.90
20803;DHT22;10562;-33.856;151.182;2022-12-05T14:25:34;19.50;99.90
20803;DHT22;10562;-33.856;151.182;2022-12-05T14:28:16;19.40;99.90
20803;DHT22;10562;-33.856;151.182;2022-12-05T14:31:00;19.40;99.90
20803;DHT22;10562;-33.856;151.182;2022-12-05T14:33:37;19.40;99.90
20803;DHT22;10562;-33.856;151.182;2022-12-05T14:36:13;19.40;99.90
20803;DHT22;10562;-33.856;151.182;2022-12-05T14:38:45;19.30;99.90
20803;DHT22;10562;-33.856;151.182;2022-12-05T14:41:21;19.40;99.90
20803;DHT22;10562;-33.856;151.182;2022-12-05T14:43:55;19.40;99.90
20803;DHT22;10562;-33.856;151.182;2022-12-05T14:46:29;19.30;99.90
20803;DHT22;10562;-33.856;151.182;2022-12-05T14:49:33;19.30;99.90
20803;DHT22;10562;-33.856;151.182;2022-12-05T14:52:10;19.30;99.90
20803;DHT22;10562;-33.856;151.182;2022-12-05T14:54:41;19.20;99.90
20803;DHT22;10562;-33.856;151.182;2022-12-05T14:57:15;19.20;99.90
20803;DHT22;10562;-33.856;151.182;2022-12-05T14:59:51;19.20;99.90
20803;DHT22;10562;-33.856;151.182;2022-12-05T15:02:25;19.20;99.90
20803;DHT22;10562;-33.856;151.182;2022-12-05T15:05:02;19.20;99.90
20803;DHT22;10562;-33.856;151.182;2022-12-05T15:07:36;19.20;99.90
20803;DHT22;10562;-33.856;151.182;2022-12-05T15:10:12;19.20;99.90
20803;DHT22;10562;-33.856;151.182;2022-12-05T15:12:47;19.30;99.90
20803;DHT22;10562;-33.856;151.182;2022-12-05T15:15:23;19.30;99.90
20803;DHT22;10562;-33.856;151.182;2022-12-05T15:17:59;19.30;99.90
20803;DHT22;10562;-33.856;151.182;2022-12-05T15:20:41;19.40;99.90
20803;DHT22;10562;-33.856;151.182;2022-12-05T15:23:38;19.30;99.90
20803;DHT22;10562;-33.856;151.182;2022-12-05T15:26:17;19.40;99.90
20803;DHT22;10562;-33.856;151.182;2022-12-05T15:29:03;19.40;99.90
20803;DHT22;10562;-33.856;151.182;2022-12-05T15:31:37;19.30;99.90
20803;DHT22;10562;-33.856;151.182;2022-12-05T15:34:13;19.40;99.90
20803;DHT22;10562;-33.856;151.182;2022-12-05T15:36:51;19.40;99.90
20803;DHT22;10562;-33.856;151.182;2022-12-05T15:39:25;19.40;99.90
20803;DHT22;10562;-33.856;151.182;2022-12-05T15:41:57;19.40;99.90
20803;DHT22;10562;-33.856;151.182;2022-12-05T15:44:30;19.40;99.90
20803;DHT22;10562;-33.856;151.182;2022-12-05T15:47:01;19.30;99.90
20803;DHT22;10562;-33.856;151.182;2022-12-05T15:49:32;19.30;99.90
20803;DHT22;10562;-33.856;151.182;2022-12-05T15:52:10;19.30;99.90
20803;DHT22;10562;-33.856;151.182;2022-12-05T15:54:44;19.30;99.90
20803;DHT22;10562;-33.856;151.182;2022-12-05T15:57:19;19.30;99.90
20803;DHT22;10562;-33.856;151.182;2022-12-05T15:59:58;19.30;99.90
20803;DHT22;10562;-33.856;151.182;2022-12-05T16:02:36;19.30;99.90